Terminal Aerodrome Forecast
Issued by NWS

Home | Current Version | Previous Version | Text Only | Print | Product List | Glossary On
Versions: 1 2 3 4 5 6 7 8 9 10 11 12 13 14 15
000
FTUS45 KRIW 251100
TAFCPR
TAF
KCPR 251122Z 2512/2612 36010G18KT P6SM VCSH SCT018 OVC030
     FM251400 36011KT 2SM -SHSN BR OVC018
     FM252300 02011KT 5SM -SN OVC025
     FM260500 04007KT P6SM -SN OVC050=

USA.gov is the U.S. government's official web portal to all federal, state and local government web resources and services.